createdAt,value
2023-04-07T00:00:16.029Z,49.82
2023-04-07T00:02:44.682Z,50.18
2023-04-07T00:05:14.281Z,50.27
2023-04-07T00:07:52.974Z,49.83
2023-04-07T00:10:23.972Z,49.78
2023-04-07T00:12:52.096Z,50.59
2023-04-07T00:15:20.450Z,50.61
2023-04-07T00:17:49.409Z,50.19
2023-04-07T00:20:18.960Z,50.02
2023-04-07T00:22:47.042Z,50.26
2023-04-07T00:25:15.135Z,50.99
2023-04-07T00:27:43.126Z,50.32
2023-04-07T00:30:11.684Z,51.26
2023-04-07T00:32:39.780Z,50.76
2023-04-07T00:35:08.555Z,51.49
2023-04-07T00:37:37.978Z,51.41
2023-04-07T00:40:07.412Z,50.94
2023-04-07T00:42:35.656Z,50.70
2023-04-07T00:45:03.749Z,50.99
2023-04-07T00:47:32.358Z,51.14
2023-04-07T00:50:00.485Z,51.13
2023-04-07T00:52:30.144Z,51.14
2023-04-07T00:55:01.392Z,51.81
2023-04-07T00:57:30.834Z,51.34
2023-04-07T00:59:59.340Z,51.90
2023-04-07T01:02:33.584Z,51.38
2023-04-07T01:05:10.836Z,51.65
2023-04-07T01:07:52.017Z,51.76
2023-04-07T01:10:28.211Z,51.44
2023-04-07T01:13:09.724Z,51.82
2023-04-07T01:15:41.019Z,51.62
2023-04-07T01:18:14.980Z,51.53
2023-04-07T01:20:47.116Z,51.95
2023-04-07T01:23:34.462Z,51.74
2023-04-07T01:26:18.602Z,51.77
2023-04-07T01:29:05.503Z,52.11
2023-04-07T01:31:37.426Z,51.50
2023-04-07T01:34:05.795Z,51.59
2023-04-07T01:36:34.878Z,52.04
2023-04-07T01:39:03.397Z,51.64
2023-04-07T01:41:32.209Z,51.63
2023-04-07T01:44:02.132Z,51.96
2023-04-07T01:46:30.486Z,51.82
2023-04-07T01:49:00.542Z,51.84
2023-04-07T01:51:31.564Z,52.16
2023-04-07T01:54:00.628Z,51.82
2023-04-07T01:56:28.764Z,51.98
2023-04-07T01:58:58.643Z,51.80
2023-04-07T02:01:27.246Z,52.27
2023-04-07T02:03:57.903Z,51.97
2023-04-07T02:06:33.156Z,52.60
2023-04-07T02:09:08.945Z,52.29
2023-04-07T02:11:38.739Z,52.31
2023-04-07T02:14:09.684Z,53.11
2023-04-07T02:16:57.066Z,53.04
2023-04-07T02:19:25.321Z,52.57
2023-04-07T02:21:55.642Z,52.93
2023-04-07T02:24:23.799Z,52.72
2023-04-07T02:26:51.959Z,52.74
2023-04-07T02:29:19.984Z,52.94
2023-04-07T02:31:48.158Z,53.26
2023-04-07T02:34:16.358Z,53.47
2023-04-07T02:36:44.427Z,52.96
2023-04-07T02:39:13.920Z,53.41
2023-04-07T02:41:42.667Z,53.17
2023-04-07T02:44:10.748Z,53.35
2023-04-07T02:46:38.841Z,53.11
2023-04-07T02:49:07.181Z,53.57
2023-04-07T02:51:35.323Z,53.69
2023-04-07T02:54:03.345Z,53.82
2023-04-07T02:56:32.908Z,53.72
2023-04-07T02:59:01.227Z,53.64
2023-04-07T03:01:30.883Z,53.45
2023-04-07T03:03:59.452Z,53.98
2023-04-07T03:06:28.260Z,53.49
2023-04-07T03:09:16.591Z,53.99
2023-04-07T03:11:45.942Z,53.47
2023-04-07T03:14:14.411Z,53.85
2023-04-07T03:16:50.481Z,53.94
2023-04-07T03:19:19.017Z,54.25
2023-04-07T03:21:50.204Z,54.08
2023-04-07T03:24:18.520Z,54.09
2023-04-07T03:26:49.224Z,54.00
2023-04-07T03:29:37.595Z,53.67
2023-04-07T03:32:08.613Z,53.57
2023-04-07T03:34:36.785Z,53.67
2023-04-07T03:37:05.088Z,53.22
2023-04-07T03:39:37.518Z,52.61
2023-04-07T03:42:16.257Z,52.05
2023-04-07T03:44:46.296Z,51.32
2023-04-07T03:47:14.759Z,50.41
2023-04-07T03:49:42.729Z,49.48
2023-04-07T03:52:11.031Z,48.64
2023-04-07T03:54:39.087Z,46.54
2023-04-07T03:57:08.081Z,46.68
2023-04-07T03:59:43.482Z,45.38
2023-04-07T04:02:12.213Z,44.12
2023-04-07T04:04:41.359Z,43.73
2023-04-07T04:07:10.666Z,42.91
2023-04-07T04:09:54.237Z,42.37
2023-04-07T04:12:22.846Z,41.25
2023-04-07T04:15:03.169Z,40.99
2023-04-07T04:17:32.508Z,39.89
2023-04-07T04:20:01.015Z,39.77
2023-04-07T04:22:40.268Z,40.02
2023-04-07T04:25:09.785Z,37.88
2023-04-07T04:27:38.188Z,38.56
2023-04-07T04:30:14.641Z,38.23
2023-04-07T04:32:50.763Z,37.39
2023-04-07T04:35:23.552Z,36.68
2023-04-07T04:38:04.430Z,36.12
2023-04-07T04:40:33.040Z,36.79
2023-04-07T04:43:01.491Z,35.62
2023-04-07T04:45:32.127Z,35.50
2023-04-07T04:48:00.395Z,35.16
2023-04-07T04:50:28.649Z,34.40
2023-04-07T04:52:57.608Z,34.32
2023-04-07T04:55:25.682Z,34.45
2023-04-07T04:57:55.685Z,34.53
2023-04-07T05:00:35.478Z,33.69
2023-04-07T05:03:07.136Z,33.11
2023-04-07T05:05:39.488Z,32.57
2023-04-07T05:08:07.840Z,31.67
2023-04-07T05:10:40.225Z,30.90
2023-04-07T05:13:12.945Z,29.12
2023-04-07T05:15:43.461Z,28.44
2023-04-07T05:18:14.543Z,28.07
2023-04-07T05:20:42.942Z,27.24
2023-04-07T05:23:11.548Z,26.77
2023-04-07T05:25:40.400Z,25.48
2023-04-07T05:28:09.683Z,25.36
2023-04-07T05:30:37.860Z,24.60
2023-04-07T05:33:07.695Z,24.69
2023-04-07T05:35:49.699Z,23.39
2023-04-07T05:38:18.031Z,23.26
2023-04-07T05:40:48.301Z,22.99
2023-04-07T05:43:24.550Z,22.18
2023-04-07T05:45:52.861Z,21.54
2023-04-07T05:48:23.893Z,21.55
2023-04-07T05:50:52.376Z,20.67
2023-04-07T05:53:21.686Z,20.15
2023-04-07T05:55:49.887Z,19.90
2023-04-07T05:58:29.128Z,19.10
2023-04-07T06:00:58.115Z,19.39
2023-04-07T06:03:27.833Z,19.08
2023-04-07T06:06:06.065Z,19.08
2023-04-07T06:08:34.312Z,18.19
2023-04-07T06:11:02.506Z,18.25
2023-04-07T06:13:31.239Z,17.84
2023-04-07T06:15:59.537Z,17.36
2023-04-07T06:18:28.929Z,17.26
2023-04-07T06:20:57.010Z,17.14
2023-04-07T06:23:27.247Z,16.92
2023-04-07T06:25:55.451Z,16.74
2023-04-07T06:28:24.302Z,16.08
2023-04-07T06:30:52.560Z,15.62
2023-04-07T06:33:25.639Z,15.49
2023-04-07T06:35:56.556Z,14.66
2023-04-07T06:38:24.866Z,15.25
2023-04-07T06:40:52.962Z,15.14
2023-04-07T06:43:21.318Z,14.40
2023-04-07T06:45:55.624Z,14.35
2023-04-07T06:48:23.847Z,14.58
2023-04-07T06:50:52.460Z,14.38
2023-04-07T06:53:21.902Z,13.52
2023-04-07T06:55:49.962Z,13.57
2023-04-07T06:58:17.980Z,13.60
2023-04-07T07:00:46.055Z,14.13
2023-04-07T07:03:14.332Z,14.73
2023-04-07T07:05:42.572Z,14.12
2023-04-07T07:08:10.661Z,14.36
2023-04-07T07:10:40.203Z,14.78
2023-04-07T07:13:08.316Z,14.29
2023-04-07T07:15:36.384Z,14.32
2023-04-07T07:18:04.541Z,14.15
2023-04-07T07:20:32.635Z,13.87
2023-04-07T07:23:00.710Z,15.02
2023-04-07T07:25:29.029Z,15.30
2023-04-07T07:27:58.489Z,14.84
2023-04-07T07:30:26.652Z,14.03
2023-04-07T07:32:55.663Z,14.18
2023-04-07T07:35:25.275Z,13.54
2023-04-07T07:37:53.904Z,13.18
2023-04-07T07:40:22.216Z,13.00
2023-04-07T07:42:50.482Z,12.38
2023-04-07T07:45:20.134Z,12.47
2023-04-07T07:47:48.325Z,13.21
2023-04-07T07:50:16.479Z,14.07
2023-04-07T07:52:44.628Z,13.72
2023-04-07T07:55:13.032Z,13.42
2023-04-07T07:57:41.173Z,12.85
2023-04-07T08:00:10.515Z,12.74
2023-04-07T08:02:45.514Z,12.63
2023-04-07T08:05:13.919Z,14.37
2023-04-07T08:07:43.118Z,13.58
2023-04-07T08:10:11.325Z,13.10
2023-04-07T08:12:40.746Z,12.83
2023-04-07T08:15:10.413Z,13.02
2023-04-07T08:17:38.778Z,14.83
2023-04-07T08:20:10.579Z,16.31
2023-04-07T08:22:38.773Z,16.78
2023-04-07T08:25:07.065Z,17.71
2023-04-07T08:27:35.744Z,18.51
2023-04-07T08:30:07.012Z,19.58
2023-04-07T08:32:39.369Z,20.02
2023-04-07T08:35:09.516Z,21.16
2023-04-07T08:37:38.696Z,21.79
2023-04-07T08:40:07.882Z,22.59
2023-04-07T08:42:38.456Z,23.08
2023-04-07T08:45:09.140Z,23.76
2023-04-07T08:47:38.737Z,23.61
2023-04-07T08:50:10.326Z,24.17
2023-04-07T08:52:43.163Z,24.53
2023-04-07T08:55:13.406Z,25.27
2023-04-07T08:57:42.570Z,25.16
2023-04-07T09:00:13.119Z,25.96
2023-04-07T09:02:44.115Z,26.78
2023-04-07T09:05:15.433Z,27.72
2023-04-07T09:07:44.468Z,27.40
2023-04-07T09:10:12.754Z,27.55
2023-04-07T09:12:41.139Z,28.37
2023-04-07T09:15:09.928Z,27.83
2023-04-07T09:17:38.403Z,28.80
2023-04-07T09:20:07.231Z,28.97
2023-04-07T09:22:42.439Z,28.05
2023-04-07T09:25:12.031Z,28.17
2023-04-07T09:27:41.179Z,27.89
2023-04-07T09:30:14.956Z,28.37
2023-04-07T09:32:43.391Z,28.46
2023-04-07T09:35:11.714Z,28.29
2023-04-07T09:37:42.553Z,28.98
2023-04-07T09:40:11.012Z,28.51
2023-04-07T09:42:46.647Z,28.61
2023-04-07T09:45:33.946Z,28.90
2023-04-07T09:48:06.960Z,28.69
2023-04-07T09:50:36.433Z,28.69
2023-04-07T09:53:05.896Z,29.00
2023-04-07T09:55:35.034Z,30.16
2023-04-07T09:58:04.525Z,29.86
2023-04-07T10:00:32.568Z,29.77
2023-04-07T10:03:01.932Z,29.80
2023-04-07T10:05:30.750Z,30.23
2023-04-07T10:07:58.896Z,30.47
2023-04-07T10:10:28.820Z,30.25
2023-04-07T10:12:58.428Z,30.45
2023-04-07T10:15:26.740Z,30.67
2023-04-07T10:17:56.993Z,30.24
2023-04-07T10:20:26.285Z,31.25
2023-04-07T10:23:03.662Z,30.60
2023-04-07T10:25:36.400Z,30.28
2023-04-07T10:28:07.504Z,30.52
2023-04-07T10:30:36.399Z,30.62
2023-04-07T10:33:04.811Z,30.78
2023-04-07T10:36:06.131Z,31.79
2023-04-07T10:38:34.567Z,30.85
2023-04-07T10:41:33.207Z,31.37
2023-04-07T10:44:02.377Z,31.47
2023-04-07T10:47:04.079Z,31.85
2023-04-07T10:49:32.313Z,32.28
2023-04-07T10:52:25.574Z,31.93
2023-04-07T10:55:32.793Z,32.13
2023-04-07T10:58:19.823Z,31.90
2023-04-07T11:01:19.998Z,32.77
2023-04-07T11:03:56.838Z,32.67
2023-04-07T11:06:26.509Z,32.08
2023-04-07T11:08:54.555Z,32.37
2023-04-07T11:11:38.522Z,32.49
2023-04-07T11:14:08.227Z,32.76
2023-04-07T11:16:42.902Z,32.58
2023-04-07T11:19:11.277Z,32.71
2023-04-07T11:21:39.414Z,32.54
2023-04-07T11:24:07.997Z,32.38
2023-04-07T11:26:40.631Z,32.45
2023-04-07T11:29:11.804Z,32.71
2023-04-07T11:31:40.320Z,32.07
2023-04-07T11:34:09.098Z,32.45
2023-04-07T11:36:40.505Z,32.53
2023-04-07T11:39:20.411Z,32.76
2023-04-07T11:41:50.367Z,33.07
2023-04-07T11:44:20.521Z,33.10
2023-04-07T11:46:56.640Z,33.03
2023-04-07T11:49:28.216Z,33.19
2023-04-07T11:52:00.906Z,32.98
2023-04-07T11:54:29.316Z,33.30
2023-04-07T11:56:58.266Z,32.74
2023-04-07T11:59:28.718Z,32.79
2023-04-07T12:01:58.076Z,33.00
2023-04-07T12:04:26.760Z,32.78
2023-04-07T12:06:54.877Z,32.94
2023-04-07T12:09:31.247Z,32.73
2023-04-07T12:12:00.128Z,32.71
2023-04-07T12:14:29.569Z,33.16
2023-04-07T12:16:58.859Z,32.80
2023-04-07T12:19:27.876Z,32.59
2023-04-07T12:21:56.077Z,32.43
2023-04-07T12:24:24.958Z,32.41
2023-04-07T12:26:53.292Z,32.68
2023-04-07T12:29:21.546Z,32.58
2023-04-07T12:31:51.532Z,32.98
2023-04-07T12:34:20.174Z,32.62
2023-04-07T12:36:48.673Z,31.93
2023-04-07T12:39:17.314Z,31.78
2023-04-07T12:41:47.573Z,32.12
2023-04-07T12:44:17.085Z,31.96
2023-04-07T12:46:45.470Z,32.04
2023-04-07T12:49:14.986Z,32.18
2023-04-07T12:51:43.293Z,32.35
2023-04-07T12:54:11.626Z,32.30
2023-04-07T12:56:40.877Z,32.61
2023-04-07T12:59:09.833Z,32.71
2023-04-07T13:01:38.395Z,32.68
2023-04-07T13:04:06.812Z,32.73
2023-04-07T13:06:36.310Z,32.96
2023-04-07T13:09:04.481Z,33.25
2023-04-07T13:11:32.419Z,33.01
2023-04-07T13:14:01.526Z,33.67
2023-04-07T13:16:29.746Z,33.41
2023-04-07T13:18:58.388Z,33.98
2023-04-07T13:21:45.481Z,34.00
2023-04-07T13:24:16.529Z,34.55
2023-04-07T13:26:45.050Z,34.82
2023-04-07T13:29:13.043Z,34.59
2023-04-07T13:31:41.226Z,34.98
2023-04-07T13:34:09.323Z,34.89
2023-04-07T13:36:37.463Z,35.37
2023-04-07T13:39:05.750Z,34.66
2023-04-07T13:41:35.466Z,34.98
2023-04-07T13:44:03.569Z,35.53
2023-04-07T13:46:31.852Z,36.09
2023-04-07T13:48:59.938Z,36.10
2023-04-07T13:51:28.223Z,36.32
2023-04-07T13:53:56.579Z,36.23
2023-04-07T13:56:24.823Z,36.73
2023-04-07T13:58:54.320Z,36.69
2023-04-07T14:01:22.396Z,37.04
2023-04-07T14:03:50.757Z,36.57
2023-04-07T14:06:22.530Z,37.03
2023-04-07T14:08:50.779Z,37.29
2023-04-07T14:11:18.884Z,37.15
2023-04-07T14:13:47.552Z,36.88
2023-04-07T14:16:17.708Z,36.57
2023-04-07T14:18:46.853Z,37.36
2023-04-07T14:21:15.267Z,37.43
2023-04-07T14:23:43.366Z,37.26
2023-04-07T14:26:12.310Z,36.96
2023-04-07T14:28:40.913Z,37.26
2023-04-07T14:31:14.537Z,37.19
2023-04-07T14:33:44.279Z,37.98
2023-04-07T14:36:12.717Z,37.39
2023-04-07T14:38:40.986Z,37.36
2023-04-07T14:41:10.391Z,37.56
2023-04-07T14:43:39.400Z,37.85
2023-04-07T14:46:07.459Z,37.28
2023-04-07T14:48:35.533Z,37.84
2023-04-07T14:51:09.624Z,37.82
2023-04-07T14:53:38.153Z,38.07
2023-04-07T14:56:06.352Z,38.23
2023-04-07T14:58:37.428Z,37.46
2023-04-07T15:01:06.606Z,37.00
2023-04-07T15:03:35.290Z,37.80
2023-04-07T15:06:08.125Z,38.15
2023-04-07T15:08:36.444Z,37.52
2023-04-07T15:11:05.691Z,37.31
2023-04-07T15:13:33.820Z,37.22
2023-04-07T15:16:07.960Z,37.79
2023-04-07T15:18:36.190Z,37.67
2023-04-07T15:21:06.063Z,38.06
2023-04-07T15:23:34.506Z,37.01
2023-04-07T15:26:02.565Z,37.47
2023-04-07T15:28:30.807Z,36.98
2023-04-07T15:30:58.924Z,37.70
2023-04-07T15:33:27.203Z,37.74
2023-04-07T15:35:55.309Z,37.01
2023-04-07T15:38:24.750Z,37.77
2023-04-07T15:40:52.775Z,37.17
2023-04-07T15:43:20.823Z,36.95
2023-04-07T15:45:49.012Z,37.73
2023-04-07T15:48:17.649Z,36.72
2023-04-07T15:50:46.113Z,37.52
2023-04-07T15:53:14.464Z,37.49
2023-04-07T15:55:44.746Z,37.22
2023-04-07T15:58:13.248Z,36.65
2023-04-07T16:00:41.737Z,36.94
2023-04-07T16:03:10.096Z,37.52
2023-04-07T16:05:39.242Z,37.97
2023-04-07T16:08:07.608Z,37.17
2023-04-07T16:10:36.012Z,37.07
2023-04-07T16:13:05.407Z,37.99
2023-04-07T16:15:40.209Z,37.64
2023-04-07T16:18:10.949Z,37.68
2023-04-07T16:20:39.142Z,36.84
2023-04-07T16:23:07.226Z,36.38
2023-04-07T16:25:35.342Z,37.23
2023-04-07T16:28:03.472Z,37.02
2023-04-07T16:30:33.441Z,36.67
2023-04-07T16:33:01.827Z,36.42
2023-04-07T16:35:31.011Z,36.08
2023-04-07T16:38:04.063Z,36.81
2023-04-07T16:40:32.424Z,36.38
2023-04-07T16:43:00.833Z,37.33
2023-04-07T16:45:29.350Z,36.62
2023-04-07T16:47:58.964Z,36.66
2023-04-07T16:50:27.533Z,37.14
2023-04-07T16:52:57.615Z,37.77
2023-04-07T16:55:26.258Z,37.38
2023-04-07T16:57:56.997Z,37.16
2023-04-07T17:00:28.726Z,37.47
2023-04-07T17:02:58.810Z,37.00
2023-04-07T17:05:27.717Z,38.41
2023-04-07T17:07:57.216Z,37.48
2023-04-07T17:10:26.129Z,37.90
2023-04-07T17:12:56.231Z,38.46
2023-04-07T17:15:24.885Z,38.41
2023-04-07T17:17:53.075Z,38.38
2023-04-07T17:20:23.522Z,38.38
2023-04-07T17:22:51.816Z,38.19
2023-04-07T17:25:20.186Z,38.42
2023-04-07T17:27:49.046Z,38.59
2023-04-07T17:30:18.365Z,38.05
2023-04-07T17:32:46.749Z,38.19
2023-04-07T17:35:14.884Z,38.49
2023-04-07T17:37:44.432Z,39.09
2023-04-07T17:40:13.212Z,39.33
2023-04-07T17:42:41.547Z,38.91
2023-04-07T17:45:11.986Z,39.16
2023-04-07T17:47:40.398Z,39.67
2023-04-07T17:50:10.709Z,39.52
2023-04-07T17:52:39.040Z,39.83
2023-04-07T17:55:09.820Z,39.84
2023-04-07T17:57:38.605Z,39.77
2023-04-07T18:00:07.851Z,40.10
2023-04-07T18:02:42.250Z,40.02
2023-04-07T18:05:12.093Z,40.08
2023-04-07T18:07:40.150Z,40.27
2023-04-07T18:10:11.043Z,40.40
2023-04-07T18:12:39.505Z,40.63
2023-04-07T18:15:08.643Z,40.69
2023-04-07T18:17:37.292Z,40.49
2023-04-07T18:20:06.174Z,40.87
2023-04-07T18:22:34.664Z,40.73
2023-04-07T18:25:02.991Z,41.37
2023-04-07T18:27:32.409Z,41.27
2023-04-07T18:30:00.416Z,41.37
2023-04-07T18:32:28.437Z,41.56
2023-04-07T18:34:56.481Z,41.83
2023-04-07T18:37:24.567Z,42.45
2023-04-07T18:39:53.812Z,42.00
2023-04-07T18:42:22.179Z,41.96
2023-04-07T18:44:51.672Z,42.07
2023-04-07T18:47:19.775Z,42.19
2023-04-07T18:49:48.574Z,42.34
2023-04-07T18:52:16.797Z,42.66
2023-04-07T18:54:45.666Z,42.61
2023-04-07T18:57:13.778Z,42.35
2023-04-07T18:59:41.736Z,42.44
2023-04-07T19:02:11.133Z,42.79
2023-04-07T19:04:39.414Z,42.87
2023-04-07T19:07:07.519Z,42.80
2023-04-07T19:09:36.855Z,42.80
2023-04-07T19:12:05.223Z,43.01
2023-04-07T19:14:33.271Z,42.89
2023-04-07T19:17:01.402Z,43.20
2023-04-07T19:19:31.513Z,43.32
2023-04-07T19:21:59.645Z,43.58
2023-04-07T19:24:27.675Z,43.32
2023-04-07T19:26:56.925Z,43.67
2023-04-07T19:29:25.063Z,43.83
2023-04-07T19:31:54.721Z,44.02
2023-04-07T19:34:22.768Z,44.14
2023-04-07T19:36:52.184Z,44.72
2023-04-07T19:39:20.496Z,44.67
2023-04-07T19:41:48.629Z,45.16
2023-04-07T19:44:18.183Z,45.09
2023-04-07T19:46:46.273Z,45.37
2023-04-07T19:49:14.462Z,45.19
2023-04-07T19:51:43.191Z,45.25
2023-04-07T19:54:12.628Z,45.25
2023-04-07T19:56:40.745Z,45.45
2023-04-07T19:59:08.865Z,45.45
2023-04-07T20:01:37.596Z,45.35
2023-04-07T20:04:06.118Z,45.32
2023-04-07T20:06:36.649Z,45.81
2023-04-07T20:09:04.791Z,45.97
2023-04-07T20:11:34.166Z,45.72
2023-04-07T20:14:02.248Z,45.70
2023-04-07T20:16:32.672Z,45.69
2023-04-07T20:19:01.020Z,46.23
2023-04-07T20:21:29.159Z,46.07
2023-04-07T20:23:57.244Z,45.78
2023-04-07T20:26:25.470Z,45.65
2023-04-07T20:28:54.833Z,46.69
2023-04-07T20:31:23.289Z,46.69
2023-04-07T20:33:51.407Z,46.54
2023-04-07T20:36:19.631Z,46.45
2023-04-07T20:38:48.639Z,46.13
2023-04-07T20:41:17.621Z,46.75
2023-04-07T20:43:45.740Z,46.72
2023-04-07T20:46:15.242Z,47.00
2023-04-07T20:48:43.669Z,46.31
2023-04-07T20:51:12.276Z,46.61
2023-04-07T20:53:40.667Z,47.16
2023-04-07T20:56:08.821Z,46.67
2023-04-07T20:58:37.239Z,46.28
2023-04-07T21:01:05.432Z,46.90
2023-04-07T21:03:35.961Z,46.75
2023-04-07T21:06:05.725Z,46.40
2023-04-07T21:08:33.729Z,46.91
2023-04-07T21:11:01.804Z,46.44
2023-04-07T21:13:29.830Z,46.61
2023-04-07T21:15:59.341Z,46.72
2023-04-07T21:18:27.494Z,46.66
2023-04-07T21:21:02.184Z,46.50
2023-04-07T21:23:31.875Z,46.61
2023-04-07T21:26:03.375Z,47.26
2023-04-07T21:28:31.610Z,46.76
2023-04-07T21:30:59.753Z,47.49
2023-04-07T21:33:28.203Z,47.20
2023-04-07T21:35:56.617Z,47.14
2023-04-07T21:38:26.399Z,47.25
2023-04-07T21:40:54.875Z,47.38
2023-04-07T21:43:23.568Z,47.47
2023-04-07T21:45:52.320Z,47.28
2023-04-07T21:48:20.898Z,47.73
2023-04-07T21:50:48.882Z,47.59
2023-04-07T21:53:16.912Z,48.01
2023-04-07T21:55:46.329Z,47.67
2023-04-07T21:58:14.346Z,47.68
2023-04-07T22:00:42.302Z,47.47
2023-04-07T22:03:11.105Z,48.03
2023-04-07T22:05:39.673Z,47.91
2023-04-07T22:08:07.657Z,47.21
2023-04-07T22:10:35.596Z,47.84
2023-04-07T22:13:04.974Z,47.45
2023-04-07T22:15:33.061Z,47.35
2023-04-07T22:18:01.120Z,47.79
2023-04-07T22:20:29.235Z,48.08
2023-04-07T22:22:57.696Z,47.54
2023-04-07T22:25:26.809Z,47.74
2023-04-07T22:27:56.812Z,48.06
2023-04-07T22:30:26.543Z,47.50
2023-04-07T22:32:54.627Z,47.39
2023-04-07T22:35:22.772Z,47.53
2023-04-07T22:37:50.961Z,47.81
2023-04-07T22:40:19.077Z,47.81
2023-04-07T22:42:47.048Z,48.18
2023-04-07T22:45:15.073Z,47.77
2023-04-07T22:47:45.090Z,47.90
2023-04-07T22:50:13.260Z,48.03
2023-04-07T22:52:41.293Z,47.81
2023-04-07T22:55:10.168Z,48.33
2023-04-07T22:57:38.140Z,47.70
2023-04-07T23:00:07.492Z,47.86
2023-04-07T23:02:35.661Z,47.86
2023-04-07T23:05:07.568Z,48.35
2023-04-07T23:07:35.759Z,48.02
2023-04-07T23:10:04.256Z,48.10
2023-04-07T23:12:32.303Z,48.64
2023-04-07T23:15:00.369Z,48.08
2023-04-07T23:17:28.789Z,47.97
2023-04-07T23:19:56.816Z,48.51
2023-04-07T23:22:26.391Z,48.47
2023-04-07T23:24:55.444Z,48.78
2023-04-07T23:27:23.581Z,48.67
2023-04-07T23:29:51.912Z,48.54
2023-04-07T23:32:20.014Z,49.00
2023-04-07T23:34:48.011Z,48.46
2023-04-07T23:37:16.034Z,49.03
2023-04-07T23:39:45.732Z,48.48
2023-04-07T23:42:15.624Z,49.03
2023-04-07T23:44:43.667Z,48.69
2023-04-07T23:47:11.627Z,48.57
2023-04-07T23:49:39.623Z,49.14
2023-04-07T23:52:07.665Z,49.30
2023-04-07T23:54:35.581Z,49.01
2023-04-07T23:57:05.072Z,49.16
2023-04-07T23:59:33.919Z,49.88
